QTR9K OTHH-KLAX
Flight info
| Callsign | QTR9K |
|---|---|
| Flight time | N/A |
| Altitude | 34000 |
| Route | LUBET L934 DAVUS L602 TASMI DCT ALPET L718 KABAN UL718 ULSAB UL614 EZS UW710 SIV UL615 VADEN Y520 LUKOV DCT XENIT DCT BABIT DCT SASAL DCT LAMSI L604 MOOCE/N0475F240 L604 ANELA/N0486F340 L604 RELBI L602 SPY DCT MONIL DCT MOLIX DCT EMLON L602 NALAX L46 GETNO DCT IOM/N0472F240 L10 BELZU/N0489F340 DCT SOVED DCT PIKIL/M085F340 DCT 57N020W 59N030W 59N040W 58N050W DCT CUDDY/N0494F340 DCT 56N070W/N0494F360 55N081W 53N090W/N0499F380 DCT FERNO DCT YRL DCT HML DCT BIS DCT RAP DCT EKR DCT HVE/N0487F400 DCT PROMT Q88 HAKMN ANJLL4 |
| Aircraft | A35K/H-SDE2E3GHIJ3J4J5LM1ORWXY/LB1D1 |
Departure
| Time | N/A |
|---|---|
| Airport | Hamad International Airport (OTHH) |
Arrival
| Time | 2026-05-05 10:40 |
|---|---|
| Airport | Los Angeles International Airport (KLAX) |
| Time | Latitude | Longitude | Altitude | Speed | Heading |
|---|---|---|---|---|---|
| 2026-05-05 10:06 | 35.40337 | -115.22958 | 39500 ft | 407 kts | 230° |
| 2026-05-05 10:07 | 35.38563 | -115.25651 | 39277 ft | 405 kts | 230° |
| 2026-05-05 10:07 | 35.36790 | -115.28333 | 39071 ft | 404 kts | 230° |
| 2026-05-05 10:07 | 35.35025 | -115.30996 | 38845 ft | 402 kts | 230° |
| 2026-05-05 10:07 | 35.33265 | -115.33646 | 38648 ft | 400 kts | 229° |
| 2026-05-05 10:08 | 35.31505 | -115.36292 | 38395 ft | 401 kts | 229° |
| 2026-05-05 10:08 | 35.29731 | -115.38956 | 38109 ft | 402 kts | 229° |
| 2026-05-05 10:08 | 35.27961 | -115.41611 | 37867 ft | 402 kts | 229° |
| 2026-05-05 10:08 | 35.26212 | -115.44232 | 37613 ft | 401 kts | 229° |
| 2026-05-05 10:09 | 35.24450 | -115.46872 | 37349 ft | 401 kts | 229° |
| 2026-05-05 10:09 | 35.22692 | -115.49504 | 37092 ft | 401 kts | 229° |
| 2026-05-05 10:09 | 35.21249 | -115.51662 | 36899 ft | 401 kts | 229° |
| 2026-05-05 10:09 | 35.19500 | -115.54277 | 36647 ft | 401 kts | 229° |
| 2026-05-05 10:10 | 35.17732 | -115.56917 | 36395 ft | 400 kts | 229° |
| 2026-05-05 10:10 | 35.15971 | -115.59545 | 36148 ft | 400 kts | 229° |
| 2026-05-05 10:10 | 35.14202 | -115.62184 | 35906 ft | 400 kts | 229° |
| 2026-05-05 10:10 | 35.12435 | -115.64817 | 35684 ft | 400 kts | 229° |
| 2026-05-05 10:11 | 35.10664 | -115.67454 | 35434 ft | 402 kts | 229° |
| 2026-05-05 10:11 | 35.08914 | -115.70057 | 35205 ft | 401 kts | 229° |
| 2026-05-05 10:11 | 35.07145 | -115.72687 | 34968 ft | 401 kts | 229° |
| 2026-05-05 10:11 | 35.05363 | -115.75334 | 34728 ft | 400 kts | 229° |
| 2026-05-05 10:12 | 35.03602 | -115.77949 | 34505 ft | 400 kts | 229° |
| 2026-05-05 10:12 | 35.01827 | -115.80584 | 34281 ft | 400 kts | 229° |
| 2026-05-05 10:12 | 35.00062 | -115.83200 | 34047 ft | 399 kts | 229° |
| 2026-05-05 10:12 | 34.98308 | -115.85798 | 33809 ft | 399 kts | 229° |
| 2026-05-05 10:13 | 34.96539 | -115.88415 | 33549 ft | 400 kts | 229° |
| 2026-05-05 10:13 | 34.94755 | -115.91054 | 33278 ft | 402 kts | 229° |
| 2026-05-05 10:13 | 34.92971 | -115.93693 | 33015 ft | 404 kts | 229° |
| 2026-05-05 10:13 | 34.91193 | -115.96320 | 32781 ft | 408 kts | 229° |
| 2026-05-05 10:14 | 34.89370 | -115.99010 | 32534 ft | 414 kts | 229° |
| 2026-05-05 10:14 | 34.87522 | -116.01734 | 32270 ft | 417 kts | 229° |
| 2026-05-05 10:14 | 34.85685 | -116.04438 | 32019 ft | 419 kts | 229° |
| 2026-05-05 10:14 | 34.83815 | -116.07191 | 31771 ft | 421 kts | 229° |
| 2026-05-05 10:15 | 34.81939 | -116.09950 | 31523 ft | 424 kts | 229° |
| 2026-05-05 10:15 | 34.80051 | -116.12726 | 31279 ft | 426 kts | 229° |
| 2026-05-05 10:15 | 34.78150 | -116.15517 | 31036 ft | 428 kts | 229° |
| 2026-05-05 10:15 | 34.76270 | -116.18277 | 30800 ft | 430 kts | 229° |
| 2026-05-05 10:16 | 34.74354 | -116.21086 | 30547 ft | 430 kts | 229° |
| 2026-05-05 10:16 | 34.72442 | -116.23887 | 30312 ft | 429 kts | 229° |
| 2026-05-05 10:16 | 34.70526 | -116.26693 | 30107 ft | 431 kts | 229° |
| 2026-05-05 10:16 | 34.68622 | -116.29476 | 29854 ft | 435 kts | 229° |
| 2026-05-05 10:17 | 34.66678 | -116.32317 | 29572 ft | 437 kts | 229° |
| 2026-05-05 10:17 | 34.64727 | -116.35168 | 29293 ft | 436 kts | 229° |
| 2026-05-05 10:17 | 34.62786 | -116.38003 | 29007 ft | 436 kts | 229° |
| 2026-05-05 10:17 | 34.60848 | -116.40828 | 28728 ft | 435 kts | 229° |
| 2026-05-05 10:18 | 34.58936 | -116.43615 | 28458 ft | 434 kts | 229° |
| 2026-05-05 10:18 | 34.56996 | -116.46440 | 28185 ft | 433 kts | 229° |
| 2026-05-05 10:18 | 34.55064 | -116.49251 | 27905 ft | 432 kts | 229° |
| 2026-05-05 10:18 | 34.53138 | -116.52051 | 27638 ft | 432 kts | 229° |
| 2026-05-05 10:19 | 34.51209 | -116.54852 | 27379 ft | 431 kts | 229° |
| 2026-05-05 10:19 | 34.49308 | -116.57609 | 27160 ft | 431 kts | 229° |
| 2026-05-05 10:19 | 34.47375 | -116.60411 | 26895 ft | 432 kts | 229° |
| 2026-05-05 10:19 | 34.45442 | -116.63213 | 26643 ft | 431 kts | 229° |
| 2026-05-05 10:20 | 34.43520 | -116.65997 | 26360 ft | 425 kts | 229° |
| 2026-05-05 10:20 | 34.41642 | -116.68716 | 25918 ft | 416 kts | 229° |
| 2026-05-05 10:20 | 34.39805 | -116.71371 | 25437 ft | 408 kts | 229° |
| 2026-05-05 10:20 | 34.38021 | -116.73948 | 24979 ft | 400 kts | 229° |
| 2026-05-05 10:21 | 34.36248 | -116.76509 | 24514 ft | 395 kts | 229° |
| 2026-05-05 10:21 | 34.34477 | -116.79062 | 24069 ft | 396 kts | 229° |
| 2026-05-05 10:21 | 34.32704 | -116.81615 | 23593 ft | 397 kts | 229° |
| 2026-05-05 10:21 | 34.30931 | -116.84168 | 23060 ft | 396 kts | 229° |
| 2026-05-05 10:22 | 34.29157 | -116.86722 | 22581 ft | 395 kts | 229° |
| 2026-05-05 10:22 | 34.27394 | -116.89259 | 22121 ft | 395 kts | 229° |
| 2026-05-05 10:22 | 34.25623 | -116.91804 | 21634 ft | 394 kts | 229° |
| 2026-05-05 10:22 | 34.23862 | -116.94334 | 21157 ft | 392 kts | 229° |
| 2026-05-05 10:23 | 34.22139 | -116.96878 | 20628 ft | 391 kts | 233° |
| 2026-05-05 10:23 | 34.20781 | -116.99708 | 20040 ft | 389 kts | 246° |
| 2026-05-05 10:23 | 34.19864 | -117.02743 | 19429 ft | 388 kts | 250° |
| 2026-05-05 10:23 | 34.19040 | -117.05832 | 18816 ft | 385 kts | 251° |
| 2026-05-05 10:24 | 34.18223 | -117.08903 | 18186 ft | 382 kts | 251° |
| 2026-05-05 10:24 | 34.17408 | -117.11947 | 17539 ft | 379 kts | 251° |
| 2026-05-05 10:24 | 34.16584 | -117.15005 | 17083 ft | 389 kts | 251° |
| 2026-05-05 10:24 | 34.15733 | -117.18148 | 16689 ft | 396 kts | 251° |
| 2026-05-05 10:25 | 34.14870 | -117.21291 | 16161 ft | 393 kts | 251° |
| 2026-05-05 10:25 | 34.14009 | -117.24413 | 15700 ft | 390 kts | 251° |
| 2026-05-05 10:25 | 34.13156 | -117.27506 | 15280 ft | 388 kts | 251° |
| 2026-05-05 10:25 | 34.12305 | -117.30589 | 14861 ft | 386 kts | 251° |
| 2026-05-05 10:26 | 34.11459 | -117.33651 | 14451 ft | 384 kts | 251° |
| 2026-05-05 10:26 | 34.10617 | -117.36698 | 14110 ft | 382 kts | 251° |
| 2026-05-05 10:26 | 34.09805 | -117.39741 | 13643 ft | 380 kts | 253° |
| 2026-05-05 10:26 | 34.09052 | -117.42786 | 13086 ft | 376 kts | 253° |
| 2026-05-05 10:27 | 34.08325 | -117.45751 | 12814 ft | 361 kts | 253° |
| 2026-05-05 10:27 | 34.07624 | -117.48592 | 12544 ft | 347 kts | 253° |
| 2026-05-05 10:27 | 34.07062 | -117.51317 | 12072 ft | 325 kts | 257° |
| 2026-05-05 10:27 | 34.06624 | -117.53928 | 11486 ft | 308 kts | 258° |
| 2026-05-05 10:28 | 34.06215 | -117.56438 | 11052 ft | 307 kts | 257° |
| 2026-05-05 10:28 | 34.05799 | -117.58972 | 10700 ft | 307 kts | 257° |
| 2026-05-05 10:28 | 34.05383 | -117.61488 | 10360 ft | 303 kts | 257° |
| 2026-05-05 10:28 | 34.04979 | -117.63928 | 10129 ft | 292 kts | 257° |
| 2026-05-05 10:29 | 34.04588 | -117.66276 | 9769 ft | 287 kts | 256° |
| 2026-05-05 10:29 | 34.04195 | -117.68621 | 9300 ft | 284 kts | 257° |
| 2026-05-05 10:29 | 34.03806 | -117.70944 | 8938 ft | 278 kts | 257° |
| 2026-05-05 10:29 | 34.03426 | -117.73208 | 8641 ft | 274 kts | 257° |
| 2026-05-05 10:30 | 34.03047 | -117.75466 | 8317 ft | 273 kts | 257° |
| 2026-05-05 10:30 | 34.02676 | -117.77673 | 8018 ft | 271 kts | 257° |
| 2026-05-05 10:30 | 34.02299 | -117.79907 | 7702 ft | 269 kts | 257° |
| 2026-05-05 10:30 | 34.01928 | -117.82113 | 7399 ft | 268 kts | 257° |
| 2026-05-05 10:31 | 34.01557 | -117.84315 | 7082 ft | 266 kts | 257° |
| 2026-05-05 10:31 | 34.01193 | -117.86469 | 6782 ft | 265 kts | 257° |
| 2026-05-05 10:31 | 34.00826 | -117.88647 | 6473 ft | 264 kts | 257° |
| 2026-05-05 10:31 | 34.00460 | -117.90807 | 6153 ft | 262 kts | 257° |
| 2026-05-05 10:32 | 34.00096 | -117.92958 | 6035 ft | 260 kts | 258° |
| 2026-05-05 10:32 | 33.99746 | -117.95028 | 5988 ft | 243 kts | 258° |
| 2026-05-05 10:32 | 33.99417 | -117.96968 | 5949 ft | 231 kts | 257° |
| 2026-05-05 10:32 | 33.99097 | -117.98852 | 5927 ft | 230 kts | 258° |
| 2026-05-05 10:33 | 33.98781 | -118.00720 | 5899 ft | 230 kts | 258° |
| 2026-05-05 10:33 | 33.98460 | -118.02603 | 5872 ft | 229 kts | 257° |
| 2026-05-05 10:33 | 33.98139 | -118.04489 | 5685 ft | 229 kts | 257° |
| 2026-05-05 10:33 | 33.97820 | -118.06352 | 5367 ft | 226 kts | 258° |
| 2026-05-05 10:34 | 33.97448 | -118.08167 | 5089 ft | 219 kts | 250° |
| 2026-05-05 10:34 | 33.96973 | -118.09866 | 4857 ft | 209 kts | 256° |
| 2026-05-05 10:34 | 33.96736 | -118.11567 | 4547 ft | 204 kts | 263° |
| 2026-05-05 10:34 | 33.96547 | -118.13254 | 4246 ft | 203 kts | 262° |
| 2026-05-05 10:35 | 33.96357 | -118.14942 | 3952 ft | 203 kts | 263° |
| 2026-05-05 10:35 | 33.96185 | -118.16610 | 3673 ft | 200 kts | 263° |
| 2026-05-05 10:35 | 33.96018 | -118.18230 | 3426 ft | 192 kts | 263° |
| 2026-05-05 10:35 | 33.95852 | -118.19827 | 3165 ft | 192 kts | 263° |
| 2026-05-05 10:36 | 33.95688 | -118.21425 | 2907 ft | 192 kts | 263° |
| 2026-05-05 10:36 | 33.95524 | -118.23022 | 2640 ft | 190 kts | 263° |
| 2026-05-05 10:36 | 33.95368 | -118.24540 | 2389 ft | 175 kts | 264° |
| 2026-05-05 10:36 | 33.95226 | -118.25933 | 2159 ft | 160 kts | 263° |
| 2026-05-05 10:37 | 33.95094 | -118.27220 | 1939 ft | 150 kts | 263° |
| 2026-05-05 10:37 | 33.94969 | -118.28435 | 1760 ft | 144 kts | 263° |
| 2026-05-05 10:37 | 33.94845 | -118.29640 | 1569 ft | 145 kts | 263° |
| 2026-05-05 10:37 | 33.94722 | -118.30848 | 1365 ft | 145 kts | 263° |
| 2026-05-05 10:38 | 33.94604 | -118.32057 | 1168 ft | 144 kts | 263° |
| 2026-05-05 10:38 | 33.94479 | -118.33256 | 973 ft | 144 kts | 262° |
| 2026-05-05 10:38 | 33.94342 | -118.34440 | 782 ft | 145 kts | 262° |
| 2026-05-05 10:38 | 33.94226 | -118.35645 | 584 ft | 145 kts | 264° |
| 2026-05-05 10:39 | 33.94098 | -118.36848 | 393 ft | 144 kts | 263° |
| 2026-05-05 10:39 | 33.93975 | -118.38042 | 194 ft | 142 kts | 265° |
| 2026-05-05 10:39 | 33.93867 | -118.39177 | 109 ft | 121 kts | 263° |
| 2026-05-05 10:39 | 33.93781 | -118.40007 | 115 ft | 78 kts | 263° |
| 2026-05-05 10:40 | 33.93734 | -118.40469 | 112 ft | 32 kts | 263° |
| 2026-05-05 10:40 | 33.93713 | -118.40680 | 112 ft | 25 kts | 262° |
| 2026-05-05 10:40 | 33.93695 | -118.40845 | 110 ft | 6 kts | 262° |
| 2026-05-05 10:40 | 33.93710 | -118.40896 | 109 ft | 7 kts | 321° |
| 2026-05-05 10:41 | 33.93781 | -118.40908 | 108 ft | 15 kts | 352° |
| 2026-05-05 10:41 | 33.93860 | -118.40930 | 104 ft | 5 kts | 321° |
| 2026-05-05 10:41 | 33.93863 | -118.40977 | 105 ft | 7 kts | 259° |
| 2026-05-05 10:41 | 33.93851 | -118.41048 | 105 ft | 10 kts | 259° |
| 2026-05-05 10:42 | 33.93890 | -118.41164 | 103 ft | 8 kts | 353° |
| 2026-05-05 10:42 | 33.93961 | -118.41176 | 103 ft | 12 kts | 352° |
| 2026-05-05 10:42 | 33.94038 | -118.41189 | 104 ft | 11 kts | 352° |
| 2026-05-05 10:43 | 33.94082 | -118.41189 | 102 ft | 4 kts | 26° |
| 2026-05-05 10:43 | 33.94089 | -118.41165 | 103 ft | 4 kts | 75° |
| 2026-05-05 10:43 | 33.94096 | -118.41122 | 102 ft | 6 kts | 81° |
| 2026-05-05 10:43 | 33.94099 | -118.41092 | 103 ft | 2 kts | 81° |
| 2026-05-05 10:44 | 33.94100 | -118.41089 | 103 ft | 0 kts | 81° |